createdAt,value
2022-08-17T00:00:01.088Z,9.48
2022-08-17T00:02:27.871Z,9.68
2022-08-17T00:04:55.605Z,9.75
2022-08-17T00:07:22.726Z,9.75
2022-08-17T00:09:49.377Z,8.85
2022-08-17T00:12:41.499Z,10.25
2022-08-17T00:15:05.908Z,10.88
2022-08-17T00:17:38.281Z,10.25
2022-08-17T00:20:06.490Z,10.43
2022-08-17T00:22:36.498Z,10.00
2022-08-17T00:25:07.453Z,11.07
2022-08-17T00:27:34.746Z,11.38
2022-08-17T00:30:01.587Z,10.70
2022-08-17T00:33:12.357Z,11.32
2022-08-17T00:35:19.387Z,10.93
2022-08-17T00:37:46.361Z,10.35
2022-08-17T00:40:15.174Z,10.73
2022-08-17T00:42:43.452Z,11.07
2022-08-17T00:45:14.521Z,11.45
2022-08-17T00:47:41.913Z,10.60
2022-08-17T00:50:12.424Z,11.30
2022-08-17T00:52:46.020Z,10.85
2022-08-17T00:55:13.448Z,12.25
2022-08-17T00:57:44.993Z,11.68
2022-08-17T01:00:26.714Z,11.50
2022-08-17T01:03:01.297Z,11.35
2022-08-17T01:05:31.535Z,11.88
2022-08-17T01:08:00.995Z,11.48
2022-08-17T01:10:58.383Z,10.75
2022-08-17T01:13:24.018Z,10.48
2022-08-17T01:15:55.874Z,10.15
2022-08-17T01:18:22.919Z,10.80
2022-08-17T01:20:52.410Z,10.25
2022-08-17T01:23:22.279Z,10.45
2022-08-17T01:25:52.298Z,10.18
2022-08-17T01:28:33.466Z,10.27
2022-08-17T01:31:08.740Z,10.20
2022-08-17T01:33:35.933Z,9.55
2022-08-17T01:36:04.275Z,10.68
2022-08-17T01:38:31.940Z,10.07
2022-08-17T01:41:03.618Z,9.00
2022-08-17T01:43:35.175Z,9.55
2022-08-17T01:46:03.874Z,9.40
2022-08-17T01:48:33.423Z,10.82
2022-08-17T01:51:00.700Z,9.48
2022-08-17T01:53:35.056Z,10.43
2022-08-17T01:56:13.674Z,10.07
2022-08-17T01:58:41.798Z,10.55
2022-08-17T02:01:10.901Z,9.27
2022-08-17T02:03:38.376Z,11.40
2022-08-17T02:06:21.031Z,10.40
2022-08-17T02:09:01.600Z,10.63
2022-08-17T02:11:32.988Z,11.85
2022-08-17T02:14:02.850Z,11.15
2022-08-17T02:16:36.947Z,10.48
2022-08-17T02:19:08.079Z,9.75
2022-08-17T02:21:37.067Z,11.32
2022-08-17T02:24:06.740Z,10.38
2022-08-17T02:26:33.722Z,10.82
2022-08-17T02:29:00.583Z,11.60
2022-08-17T02:31:27.334Z,10.32
2022-08-17T02:34:00.233Z,10.77
2022-08-17T02:36:33.015Z,10.55
2022-08-17T02:39:08.037Z,11.60
2022-08-17T02:41:36.551Z,11.43
2022-08-17T02:44:05.873Z,11.10
2022-08-17T02:46:32.830Z,10.95
2022-08-17T02:49:00.234Z,10.23
2022-08-17T02:51:27.890Z,10.27
2022-08-17T02:54:02.821Z,11.05
2022-08-17T02:56:42.230Z,11.45
2022-08-17T02:59:08.913Z,11.20
2022-08-17T03:01:35.582Z,11.75
2022-08-17T03:04:02.759Z,12.00
2022-08-17T03:06:29.658Z,11.88
2022-08-17T03:08:56.313Z,11.63
2022-08-17T03:11:23.661Z,11.20
2022-08-17T03:13:51.088Z,12.13
2022-08-17T03:16:17.807Z,12.63
2022-08-17T03:18:44.716Z,12.05
2022-08-17T03:21:11.649Z,13.85
2022-08-17T03:23:41.187Z,12.77
2022-08-17T03:26:15.407Z,12.63
2022-08-17T03:28:43.219Z,13.55
2022-08-17T03:31:10.180Z,13.23
2022-08-17T03:33:36.843Z,13.20
2022-08-17T03:36:03.779Z,13.35
2022-08-17T03:38:38.877Z,12.25
2022-08-17T03:41:07.002Z,12.55
2022-08-17T03:43:34.693Z,13.93
2022-08-17T03:46:28.341Z,12.43
2022-08-17T03:49:19.794Z,12.68
2022-08-17T03:52:05.155Z,13.55
2022-08-17T03:54:51.209Z,12.65
2022-08-17T03:57:19.127Z,12.30
2022-08-17T03:59:46.622Z,11.98
2022-08-17T04:02:19.023Z,12.68
2022-08-17T04:04:46.925Z,13.40
2022-08-17T04:07:13.600Z,13.23
2022-08-17T04:09:40.352Z,12.90
2022-08-17T04:12:07.449Z,12.98
2022-08-17T04:14:51.712Z,13.25
2022-08-17T04:17:25.971Z,12.68
2022-08-17T04:19:53.695Z,12.73
2022-08-17T04:22:32.136Z,12.00
2022-08-17T04:25:05.285Z,12.98
2022-08-17T04:27:32.566Z,12.73
2022-08-17T04:29:59.189Z,12.63
2022-08-17T04:33:00.516Z,13.50
2022-08-17T04:35:12.836Z,12.82
2022-08-17T04:37:39.604Z,12.48
2022-08-17T04:40:26.048Z,12.85
2022-08-17T04:43:02.781Z,12.50
2022-08-17T04:45:31.982Z,12.18
2022-08-17T04:48:00.801Z,12.68
2022-08-17T04:50:27.832Z,12.13
2022-08-17T04:52:55.982Z,12.75
2022-08-17T04:55:23.416Z,12.45
2022-08-17T04:57:50.105Z,12.27
2022-08-17T05:00:16.827Z,12.65
2022-08-17T05:02:49.572Z,11.07
2022-08-17T05:05:32.790Z,11.68
2022-08-17T05:08:02.452Z,12.05
2022-08-17T05:10:33.077Z,11.77
2022-08-17T05:13:02.363Z,12.25
2022-08-17T05:15:33.229Z,11.35
2022-08-17T05:18:03.888Z,13.82
2022-08-17T05:20:31.713Z,12.40
2022-08-17T05:23:04.501Z,11.52
2022-08-17T05:25:37.396Z,10.48
2022-08-17T05:28:05.390Z,10.10
2022-08-17T05:30:34.868Z,11.30
2022-08-17T05:33:10.708Z,10.02
2022-08-17T05:35:42.598Z,11.75
2022-08-17T05:40:37.454Z,10.27
2022-08-17T05:43:15.001Z,10.43
2022-08-17T05:46:06.175Z,10.68
2022-08-17T05:48:40.190Z,10.70
2022-08-17T05:51:42.262Z,11.10
2022-08-17T05:54:33.776Z,11.15
2022-08-17T05:57:27.492Z,9.27
2022-08-17T06:00:10.722Z,11.02
2022-08-17T06:02:58.432Z,10.93
2022-08-17T06:05:47.271Z,9.98
2022-08-17T06:08:23.586Z,10.40
2022-08-17T06:10:53.207Z,10.25
2022-08-17T06:13:35.286Z,10.52
2022-08-17T06:16:31.079Z,10.60
2022-08-17T06:19:01.072Z,10.75
2022-08-17T06:21:34.925Z,9.95
2022-08-17T06:24:24.647Z,16.45
2022-08-17T06:26:53.580Z,10.27
2022-08-17T06:29:50.791Z,10.77
2022-08-17T06:32:18.292Z,10.70
2022-08-17T06:34:46.295Z,10.05
2022-08-17T06:37:21.915Z,10.38
2022-08-17T06:39:59.695Z,10.35
2022-08-17T06:43:05.811Z,9.82
2022-08-17T06:45:49.486Z,8.98
2022-08-17T06:48:32.883Z,8.82
2022-08-17T06:51:25.907Z,8.77
2022-08-17T06:54:22.483Z,8.15
2022-08-17T06:56:59.602Z,10.20
2022-08-17T06:59:54.529Z,9.40
2022-08-17T07:02:52.396Z,9.95
2022-08-17T07:05:38.861Z,8.77
2022-08-17T07:08:44.478Z,9.65
2022-08-17T07:11:16.041Z,12.02
2022-08-17T07:14:36.930Z,11.07
2022-08-17T07:17:10.394Z,11.05
2022-08-17T07:19:41.146Z,10.85
2022-08-17T07:22:57.874Z,9.88
2022-08-17T07:25:28.586Z,9.25
2022-08-17T07:28:00.217Z,9.20
2022-08-17T07:30:46.998Z,10.38
2022-08-17T07:33:20.455Z,10.10
2022-08-17T07:35:48.452Z,8.48
2022-08-17T07:38:26.995Z,9.07
2022-08-17T07:40:57.491Z,9.40
2022-08-17T07:43:48.449Z,9.13
2022-08-17T07:46:42.846Z,9.25
2022-08-17T07:49:09.589Z,10.43
2022-08-17T07:51:44.304Z,10.73
2022-08-17T07:54:23.326Z,9.05
2022-08-17T07:56:53.448Z,10.13
2022-08-17T07:59:23.823Z,9.77
2022-08-17T08:01:57.966Z,9.13
2022-08-17T08:05:00.201Z,10.43
2022-08-17T08:07:24.413Z,9.55
2022-08-17T08:10:25.082Z,9.57
2022-08-17T08:13:10.685Z,9.73
2022-08-17T08:15:54.217Z,9.77
2022-08-17T08:18:53.740Z,10.30
2022-08-17T08:21:29.075Z,9.52
2022-08-17T08:24:13.431Z,9.13
2022-08-17T08:27:02.594Z,9.65
2022-08-17T08:30:10.088Z,9.20
2022-08-17T08:33:07.600Z,9.55
2022-08-17T08:35:47.430Z,9.55
2022-08-17T08:38:30.811Z,8.75
2022-08-17T08:41:11.822Z,9.25
2022-08-17T08:44:00.844Z,9.00
2022-08-17T08:46:42.313Z,9.98
2022-08-17T08:50:01.980Z,9.77
2022-08-17T08:52:28.374Z,10.07
2022-08-17T08:55:13.635Z,9.40
2022-08-17T08:57:47.101Z,9.75
2022-08-17T09:00:20.689Z,9.25
2022-08-17T09:02:59.181Z,12.82
2022-08-17T09:05:39.232Z,9.90
2022-08-17T09:08:18.130Z,9.52
2022-08-17T09:10:45.012Z,8.98
2022-08-17T09:13:23.515Z,8.85
2022-08-17T09:16:33.206Z,9.57
2022-08-17T09:19:30.432Z,9.38
2022-08-17T09:22:03.450Z,9.70
2022-08-17T09:24:40.114Z,9.68
2022-08-17T09:27:14.376Z,8.82
2022-08-17T09:29:57.772Z,9.23
2022-08-17T09:32:38.202Z,9.32
2022-08-17T09:35:20.875Z,9.27
2022-08-17T09:38:05.839Z,8.98
2022-08-17T09:40:55.682Z,9.15
2022-08-17T09:43:44.779Z,9.05
2022-08-17T09:46:28.520Z,9.25
2022-08-17T09:49:15.094Z,9.73
2022-08-17T09:51:48.743Z,10.43
2022-08-17T09:54:39.312Z,9.40
2022-08-17T09:57:32.160Z,8.97
2022-08-17T10:00:15.836Z,8.88
2022-08-17T10:03:09.637Z,9.57
2022-08-17T10:05:56.592Z,9.07
2022-08-17T10:08:54.033Z,9.48
2022-08-17T10:12:03.480Z,9.13
2022-08-17T10:14:44.080Z,9.15
2022-08-17T10:17:38.048Z,9.38
2022-08-17T10:20:20.489Z,9.68
2022-08-17T10:23:10.648Z,10.50
2022-08-17T10:26:04.152Z,10.05
2022-08-17T10:28:44.247Z,10.68
2022-08-17T10:31:34.300Z,11.43
2022-08-17T10:34:29.702Z,11.15
2022-08-17T10:37:25.181Z,11.55
2022-08-17T10:40:19.184Z,12.02
2022-08-17T10:43:00.534Z,11.85
2022-08-17T10:45:36.778Z,9.68
2022-08-17T10:48:07.310Z,9.75
2022-08-17T10:50:43.239Z,9.93
2022-08-17T10:53:10.313Z,9.60
2022-08-17T10:55:39.153Z,8.88
2022-08-17T10:58:22.118Z,8.73
2022-08-17T11:00:52.457Z,8.90
2022-08-17T11:03:22.501Z,8.43
2022-08-17T11:05:54.015Z,9.48
2022-08-17T11:08:36.360Z,9.30
2022-08-17T11:11:49.942Z,9.75
2022-08-17T11:14:34.973Z,9.27
2022-08-17T11:17:19.793Z,9.27
2022-08-17T11:20:07.046Z,9.38
2022-08-17T11:22:58.014Z,10.25
2022-08-17T11:25:43.703Z,9.60
2022-08-17T11:28:34.416Z,10.35
2022-08-17T11:31:23.831Z,9.75
2022-08-17T11:34:17.062Z,9.63
2022-08-17T11:37:05.397Z,9.70
2022-08-17T11:40:12.585Z,10.32
2022-08-17T11:42:46.893Z,9.68
2022-08-17T11:45:38.091Z,9.80
2022-08-17T11:48:39.283Z,10.05
2022-08-17T11:54:30.996Z,9.68
2022-08-17T11:56:53.362Z,9.63
2022-08-17T11:59:43.765Z,10.48
2022-08-17T12:02:20.167Z,11.05
2022-08-17T12:05:02.885Z,10.45
2022-08-17T12:07:32.787Z,10.13
2022-08-17T12:10:01.100Z,9.95
2022-08-17T12:12:33.419Z,10.35
2022-08-17T12:15:10.599Z,10.05
2022-08-17T12:17:40.892Z,9.88
2022-08-17T12:23:21.070Z,10.05
2022-08-17T12:25:49.291Z,10.45
2022-08-17T12:28:35.182Z,9.57
2022-08-17T12:31:34.622Z,8.63
2022-08-17T12:34:05.540Z,9.65
2022-08-17T12:39:13.999Z,9.80
2022-08-17T12:41:45.093Z,9.40
2022-08-17T12:44:12.314Z,9.75
2022-08-17T12:47:00.641Z,9.32
2022-08-17T12:49:31.592Z,9.07
2022-08-17T12:52:08.463Z,9.80
2022-08-17T12:54:45.417Z,8.90
2022-08-17T12:57:34.087Z,9.20
2022-08-17T13:00:28.045Z,9.45
2022-08-17T13:03:05.913Z,8.75
2022-08-17T13:05:39.670Z,9.52
2022-08-17T13:08:17.716Z,9.75
2022-08-17T13:10:54.848Z,9.05
2022-08-17T13:13:27.519Z,8.80
2022-08-17T13:16:03.939Z,9.13
2022-08-17T13:18:58.451Z,8.95
2022-08-17T13:21:30.626Z,8.98
2022-08-17T13:24:17.611Z,9.23
2022-08-17T13:26:49.620Z,9.18
2022-08-17T13:29:23.924Z,8.80
2022-08-17T13:31:56.698Z,9.07
2022-08-17T13:35:11.768Z,9.05
2022-08-17T13:37:34.395Z,8.85
2022-08-17T13:40:10.389Z,8.68
2022-08-17T13:42:51.859Z,9.10
2022-08-17T13:45:36.280Z,8.75
2022-08-17T13:48:12.514Z,9.07
2022-08-17T13:50:59.569Z,9.00
2022-08-17T13:53:34.007Z,9.23
2022-08-17T13:56:02.343Z,8.95
2022-08-17T13:58:33.243Z,8.38
2022-08-17T14:01:39.266Z,8.95
2022-08-17T14:04:10.023Z,8.52
2022-08-17T14:06:53.277Z,8.43
2022-08-17T14:09:27.396Z,8.65
2022-08-17T14:11:56.847Z,8.05
2022-08-17T14:14:25.437Z,8.77
2022-08-17T14:16:53.139Z,8.30
2022-08-17T14:19:21.841Z,8.93
2022-08-17T14:21:49.305Z,8.88
2022-08-17T14:24:29.258Z,8.52
2022-08-17T14:26:57.620Z,8.77
2022-08-17T14:29:27.842Z,8.90
2022-08-17T14:31:56.053Z,8.40
2022-08-17T14:34:24.568Z,7.93
2022-08-17T14:36:51.918Z,8.52
2022-08-17T14:39:19.690Z,9.23
2022-08-17T14:41:47.127Z,8.85
2022-08-17T14:44:13.848Z,7.82
2022-08-17T14:46:43.003Z,7.93
2022-08-17T14:49:12.620Z,8.43
2022-08-17T14:51:43.627Z,8.05
2022-08-17T14:54:32.867Z,7.95
2022-08-17T14:57:22.495Z,8.35
2022-08-17T14:59:50.713Z,7.62
2022-08-17T15:02:30.687Z,8.45
2022-08-17T15:05:00.361Z,7.03
2022-08-17T15:07:30.783Z,7.57
2022-08-17T15:12:32.377Z,7.32
2022-08-17T15:15:02.054Z,7.45
2022-08-17T15:17:45.277Z,8.02
2022-08-17T15:20:19.698Z,7.37
2022-08-17T15:22:49.919Z,7.47
2022-08-17T15:25:19.023Z,8.00
2022-08-17T15:27:45.994Z,7.20
2022-08-17T15:30:13.203Z,7.70
2022-08-17T15:32:45.817Z,7.97
2022-08-17T15:35:19.422Z,7.80
2022-08-17T15:38:06.485Z,8.02
2022-08-17T15:40:36.957Z,7.20
2022-08-17T15:43:06.577Z,7.32
2022-08-17T15:45:33.544Z,6.95
2022-08-17T15:48:00.531Z,8.07
2022-08-17T15:50:27.617Z,8.13
2022-08-17T15:53:00.173Z,8.50
2022-08-17T15:55:29.076Z,7.93
2022-08-17T15:57:55.983Z,8.02
2022-08-17T16:00:28.324Z,7.78
2022-08-17T16:03:46.813Z,7.95
2022-08-17T16:05:42.957Z,8.38
2022-08-17T16:08:11.132Z,8.02
2022-08-17T16:10:38.149Z,7.47
2022-08-17T16:13:05.061Z,8.88
2022-08-17T16:15:44.352Z,8.38
2022-08-17T16:18:11.544Z,8.45
2022-08-17T16:20:38.266Z,8.27
2022-08-17T16:23:05.345Z,8.80
2022-08-17T16:25:47.142Z,8.23
2022-08-17T16:28:20.777Z,8.00
2022-08-17T16:30:47.525Z,7.65
2022-08-17T16:33:16.645Z,8.63
2022-08-17T16:35:43.979Z,8.73
2022-08-17T16:38:12.431Z,7.62
2022-08-17T16:40:40.439Z,9.02
2022-08-17T16:43:10.652Z,7.85
2022-08-17T16:45:40.219Z,9.73
2022-08-17T16:48:09.266Z,9.07
2022-08-17T16:50:37.098Z,8.00
2022-08-17T16:53:16.512Z,7.55
2022-08-17T16:55:44.993Z,8.18
2022-08-17T16:58:11.798Z,8.15
2022-08-17T17:00:39.067Z,7.65
2022-08-17T17:03:19.782Z,8.00
2022-08-17T17:06:03.656Z,7.35
2022-08-17T17:08:38.323Z,8.10
2022-08-17T17:11:15.832Z,7.95
2022-08-17T17:13:57.878Z,7.43
2022-08-17T17:16:47.746Z,8.82
2022-08-17T17:19:35.126Z,8.43
2022-08-17T17:22:20.577Z,8.38
2022-08-17T17:25:06.531Z,8.73
2022-08-17T17:28:06.975Z,8.35
2022-08-17T17:30:43.709Z,9.43
2022-08-17T17:33:17.565Z,8.68
2022-08-17T17:36:15.877Z,9.52
2022-08-17T17:38:52.805Z,9.18
2022-08-17T17:41:29.023Z,8.23
2022-08-17T17:44:12.927Z,8.73
2022-08-17T17:46:50.541Z,9.35
2022-08-17T17:49:18.671Z,9.85
2022-08-17T17:52:19.105Z,9.60
2022-08-17T17:54:55.299Z,9.10
2022-08-17T17:57:45.046Z,9.80
2022-08-17T18:00:31.014Z,10.10
2022-08-17T18:03:24.502Z,9.00
2022-08-17T18:06:09.776Z,10.23
2022-08-17T18:09:19.476Z,10.77
2022-08-17T18:12:08.707Z,10.50
2022-08-17T18:14:50.959Z,10.90
2022-08-17T18:19:47.101Z,9.60
2022-08-17T18:22:18.224Z,11.07
2022-08-17T18:27:25.926Z,10.30
2022-08-17T18:29:55.581Z,9.18
2022-08-17T18:32:41.388Z,10.68
2022-08-17T18:35:11.435Z,10.55
2022-08-17T18:37:51.726Z,11.00
2022-08-17T18:40:23.345Z,11.60
2022-08-17T18:45:33.249Z,10.23
2022-08-17T18:48:01.575Z,11.18
2022-08-17T18:50:41.161Z,11.43
2022-08-17T18:53:33.428Z,11.48
2022-08-17T18:56:33.827Z,10.68
2022-08-17T18:59:04.465Z,11.00
2022-08-17T19:01:59.948Z,11.60
2022-08-17T19:04:40.658Z,12.15
2022-08-17T19:07:09.732Z,11.60
2022-08-17T19:09:43.683Z,11.20
2022-08-17T19:12:26.409Z,10.98
2022-08-17T19:14:56.910Z,11.20
2022-08-17T19:17:39.720Z,11.35
2022-08-17T19:20:15.768Z,11.32
2022-08-17T19:22:56.367Z,11.52
2022-08-17T19:25:28.535Z,11.12
2022-08-17T19:28:06.180Z,11.00
2022-08-17T19:30:54.710Z,11.07
2022-08-17T19:33:22.087Z,11.52
2022-08-17T19:36:04.341Z,11.52
2022-08-17T19:38:44.727Z,11.15
2022-08-17T19:41:11.817Z,11.12
2022-08-17T19:43:55.152Z,11.90
2022-08-17T19:46:49.932Z,12.70
2022-08-17T19:49:33.431Z,11.43
2022-08-17T19:52:37.648Z,10.57
2022-08-17T19:55:24.754Z,12.05
2022-08-17T19:58:08.184Z,13.25
2022-08-17T20:00:49.820Z,12.30
2022-08-17T20:03:43.176Z,12.30
2022-08-17T20:06:13.788Z,11.10
2022-08-17T20:09:03.442Z,12.32
2022-08-17T20:11:42.011Z,12.95
2022-08-17T20:14:14.476Z,12.75
2022-08-17T20:16:41.938Z,11.70
2022-08-17T20:19:31.508Z,12.13
2022-08-17T20:22:10.494Z,12.15
2022-08-17T20:24:56.261Z,16.73
2022-08-17T20:27:32.046Z,14.02
2022-08-17T20:30:01.696Z,13.95
2022-08-17T20:32:33.112Z,12.37
2022-08-17T20:35:19.830Z,12.60
2022-08-17T20:38:36.185Z,12.55
2022-08-17T20:41:04.028Z,13.65
2022-08-17T20:43:35.254Z,12.82
2022-08-17T20:46:32.070Z,12.23
2022-08-17T20:49:19.129Z,12.93
2022-08-17T20:52:02.438Z,13.30
2022-08-17T20:54:49.917Z,12.93
2022-08-17T20:57:32.099Z,13.38
2022-08-17T21:00:14.394Z,13.02
2022-08-17T21:03:10.735Z,12.73
2022-08-17T21:05:57.336Z,12.57
2022-08-17T21:08:29.648Z,12.95
2022-08-17T21:10:58.607Z,12.75
2022-08-17T21:13:48.644Z,13.55
2022-08-17T21:16:54.754Z,12.85
2022-08-17T21:19:24.737Z,12.27
2022-08-17T21:22:12.661Z,11.52
2022-08-17T21:24:55.413Z,11.23
2022-08-17T21:27:25.431Z,11.77
2022-08-17T21:30:13.935Z,12.25
2022-08-17T21:32:44.416Z,12.20
2022-08-17T21:35:11.042Z,11.73
2022-08-17T21:37:40.491Z,12.80
2022-08-17T21:40:10.638Z,12.25
2022-08-17T21:42:59.118Z,12.55
2022-08-17T21:45:30.450Z,12.50
2022-08-17T21:48:19.861Z,11.93
2022-08-17T21:51:19.876Z,13.20
2022-08-17T21:53:53.110Z,12.27
2022-08-17T21:56:32.963Z,12.27
2022-08-17T21:59:04.459Z,13.38
2022-08-17T22:01:37.429Z,11.77
2022-08-17T22:04:26.433Z,12.77
2022-08-17T22:06:57.145Z,12.52
2022-08-17T22:09:31.940Z,12.90
2022-08-17T22:12:05.362Z,12.48
2022-08-17T22:14:51.482Z,12.40
2022-08-17T22:17:35.522Z,11.30
2022-08-17T22:20:14.248Z,11.93
2022-08-17T22:23:08.965Z,12.05
2022-08-17T22:25:56.363Z,12.32
2022-08-17T22:28:52.373Z,11.85
2022-08-17T22:31:22.621Z,11.93
2022-08-17T22:33:51.767Z,12.30
2022-08-17T22:36:29.166Z,11.75
2022-08-17T22:39:26.251Z,10.95
2022-08-17T22:42:00.213Z,11.63
2022-08-17T22:44:32.082Z,10.52
2022-08-17T22:49:53.296Z,11.02
2022-08-17T22:52:57.958Z,11.63
2022-08-17T22:55:45.558Z,11.32
2022-08-17T22:58:33.863Z,10.55
2022-08-17T23:01:22.663Z,11.38
2022-08-17T23:04:04.685Z,10.60
2022-08-17T23:06:34.253Z,10.95
2022-08-17T23:09:03.876Z,11.12
2022-08-17T23:11:45.823Z,11.15
2022-08-17T23:14:20.287Z,10.55
2022-08-17T23:16:49.067Z,9.90
2022-08-17T23:19:19.530Z,10.45
2022-08-17T23:21:47.365Z,10.97
2022-08-17T23:24:19.633Z,10.10
2022-08-17T23:26:47.479Z,10.23
2022-08-17T23:29:14.447Z,9.70
2022-08-17T23:31:41.607Z,10.48
2022-08-17T23:34:12.809Z,10.38
2022-08-17T23:36:39.564Z,10.95
2022-08-17T23:39:07.078Z,11.00
2022-08-17T23:41:37.876Z,11.32
2022-08-17T23:44:05.644Z,10.50
2022-08-17T23:46:32.814Z,9.93
2022-08-17T23:49:00.586Z,10.48
2022-08-17T23:51:34.600Z,10.23
2022-08-17T23:54:09.364Z,9.80
2022-08-17T23:56:45.257Z,9.82
2022-08-17T23:59:13.932Z,10.05
